createdAt,value
2022-10-05T00:00:06.368Z,12.25
2022-10-05T00:03:11.775Z,12.20
2022-10-05T00:06:13.184Z,12.24
2022-10-05T00:09:20.937Z,12.20
2022-10-05T00:12:22.887Z,12.23
2022-10-05T00:15:24.377Z,12.19
2022-10-05T00:18:26.949Z,12.19
2022-10-05T00:21:29.000Z,12.17
2022-10-05T00:24:30.398Z,12.19
2022-10-05T00:27:35.038Z,12.15
2022-10-05T00:30:36.490Z,12.15
2022-10-05T00:33:37.899Z,12.18
2022-10-05T00:36:40.115Z,12.16
2022-10-05T00:39:42.490Z,12.18
2022-10-05T00:43:10.274Z,12.18
2022-10-05T00:46:23.903Z,12.16
2022-10-05T00:49:25.350Z,12.18
2022-10-05T00:53:17.212Z,12.14
2022-10-05T00:56:36.522Z,12.05
2022-10-05T00:59:47.288Z,12.05
2022-10-05T01:03:05.156Z,12.00
2022-10-05T01:06:34.800Z,11.99
2022-10-05T01:10:05.627Z,11.90
2022-10-05T01:13:32.748Z,11.86
2022-10-05T01:16:59.906Z,11.83
2022-10-05T01:20:15.360Z,11.79
2022-10-05T01:23:19.636Z,11.78
2022-10-05T01:26:23.973Z,11.71
2022-10-05T01:29:51.556Z,11.63
2022-10-05T01:33:10.585Z,11.63
2022-10-05T01:36:25.594Z,11.66
2022-10-05T01:40:05.052Z,11.65
2022-10-05T01:43:32.744Z,11.64
2022-10-05T01:46:58.413Z,11.66
2022-10-05T01:50:11.962Z,11.66
2022-10-05T01:53:44.250Z,11.65
2022-10-05T01:57:09.958Z,11.60
2022-10-05T02:00:14.768Z,11.59
2022-10-05T02:03:20.987Z,11.57
2022-10-05T02:06:26.297Z,11.50
2022-10-05T02:09:37.317Z,11.51
2022-10-05T02:12:39.505Z,11.55
2022-10-05T02:15:58.140Z,11.54
2022-10-05T02:19:08.184Z,11.55
2022-10-05T02:22:26.348Z,11.53
2022-10-05T02:25:33.082Z,11.48
2022-10-05T02:28:39.903Z,11.45
2022-10-05T02:31:48.819Z,11.32
2022-10-05T02:34:50.768Z,11.32
2022-10-05T02:38:11.762Z,11.31
2022-10-05T02:41:32.310Z,11.26
2022-10-05T02:45:04.506Z,11.14
2022-10-05T02:48:24.369Z,11.09
2022-10-05T02:51:48.750Z,11.07
2022-10-05T02:55:17.904Z,10.99
2022-10-05T02:58:23.290Z,11.04
2022-10-05T03:01:34.656Z,11.00
2022-10-05T03:04:48.305Z,10.96
2022-10-05T03:08:08.721Z,10.92
2022-10-05T03:11:22.948Z,10.94
2022-10-05T03:14:47.717Z,10.93
2022-10-05T03:18:14.334Z,10.91
2022-10-05T03:21:48.398Z,10.91
2022-10-05T03:24:59.026Z,10.95
2022-10-05T03:28:23.860Z,10.88
2022-10-05T03:31:49.331Z,10.93
2022-10-05T03:34:58.468Z,10.89
2022-10-05T03:38:15.191Z,10.93
2022-10-05T03:41:22.841Z,10.89
2022-10-05T03:44:44.237Z,10.88
2022-10-05T03:48:05.226Z,10.89
2022-10-05T03:51:40.880Z,10.89
2022-10-05T03:54:48.357Z,10.94
2022-10-05T03:57:52.357Z,10.99
2022-10-05T04:01:01.800Z,11.01
2022-10-05T04:04:07.069Z,11.00
2022-10-05T04:07:23.465Z,10.98
2022-10-05T04:10:33.186Z,10.95
2022-10-05T04:13:40.327Z,10.91
2022-10-05T04:16:45.669Z,10.92
2022-10-05T04:19:59.819Z,10.91
2022-10-05T04:23:11.235Z,10.88
2022-10-05T04:26:24.785Z,10.87
2022-10-05T04:29:36.159Z,10.86
2022-10-05T04:32:42.837Z,10.85
2022-10-05T04:35:57.587Z,10.84
2022-10-05T04:39:18.690Z,10.82
2022-10-05T04:42:32.764Z,10.84
2022-10-05T04:46:05.092Z,10.86
2022-10-05T04:49:28.702Z,10.87
2022-10-05T04:53:05.762Z,10.86
2022-10-05T04:56:49.554Z,10.89
2022-10-05T05:00:08.622Z,10.91
2022-10-05T05:03:38.927Z,10.93
2022-10-05T05:06:58.166Z,10.89
2022-10-05T05:10:23.818Z,10.92
2022-10-05T05:13:47.022Z,10.90
2022-10-05T05:17:22.340Z,10.89
2022-10-05T05:20:53.897Z,10.87
2022-10-05T05:24:13.996Z,10.87
2022-10-05T05:27:39.178Z,10.87
2022-10-05T05:31:05.088Z,10.84
2022-10-05T05:34:18.234Z,10.84
2022-10-05T05:37:28.851Z,10.83
2022-10-05T05:40:35.142Z,10.80
2022-10-05T05:44:04.032Z,10.77
2022-10-05T05:47:24.277Z,10.77
2022-10-05T05:50:40.398Z,10.78
2022-10-05T05:53:48.855Z,10.75
2022-10-05T05:57:10.688Z,10.73
2022-10-05T06:00:13.862Z,10.79
2022-10-05T06:03:37.142Z,10.84
2022-10-05T06:06:44.553Z,10.88
2022-10-05T06:09:54.242Z,10.89
2022-10-05T06:13:06.418Z,10.90
2022-10-05T06:16:21.052Z,10.92
2022-10-05T06:19:26.318Z,10.93
2022-10-05T06:22:43.834Z,10.95
2022-10-05T06:26:15.008Z,10.97
2022-10-05T06:29:22.932Z,11.02
2022-10-05T06:32:50.689Z,11.07
2022-10-05T06:36:18.547Z,11.09
2022-10-05T06:39:48.412Z,11.13
2022-10-05T06:43:16.216Z,11.23
2022-10-05T06:46:55.490Z,11.34
2022-10-05T06:50:41.446Z,11.53
2022-10-05T06:54:20.109Z,11.71
2022-10-05T06:57:37.819Z,11.81
2022-10-05T07:00:54.026Z,11.93
2022-10-05T07:04:36.759Z,12.02
2022-10-05T07:07:59.393Z,12.12
2022-10-05T07:11:25.167Z,12.20
2022-10-05T07:14:56.538Z,12.29
2022-10-05T07:18:13.498Z,12.43
2022-10-05T07:21:58.280Z,12.60
2022-10-05T07:25:30.962Z,12.76
2022-10-05T07:28:50.698Z,12.95
2022-10-05T07:32:15.542Z,13.10
2022-10-05T07:35:51.444Z,13.24
2022-10-05T07:39:36.803Z,13.42
2022-10-05T07:43:18.347Z,13.55
2022-10-05T07:46:34.860Z,13.67
2022-10-05T07:49:51.872Z,13.69
2022-10-05T07:52:57.526Z,13.67
2022-10-05T07:56:13.364Z,13.83
2022-10-05T07:59:24.310Z,13.98
2022-10-05T08:02:34.144Z,14.14
2022-10-05T08:05:41.446Z,14.39
2022-10-05T08:09:04.770Z,14.60
2022-10-05T08:12:23.970Z,14.66
2022-10-05T08:15:34.517Z,14.77
2022-10-05T08:18:48.462Z,14.98
2022-10-05T08:22:02.860Z,15.13
2022-10-05T08:25:10.095Z,15.22
2022-10-05T08:28:22.987Z,15.35
2022-10-05T08:31:29.675Z,15.32
2022-10-05T08:34:45.703Z,15.40
2022-10-05T08:37:48.873Z,15.55
2022-10-05T08:41:01.896Z,15.62
2022-10-05T08:44:31.284Z,15.69
2022-10-05T08:48:04.690Z,15.78
2022-10-05T08:51:26.339Z,15.79
2022-10-05T08:54:46.589Z,15.90
2022-10-05T08:58:03.750Z,16.07
2022-10-05T09:01:21.211Z,16.16
2022-10-05T09:05:07.767Z,16.37
2022-10-05T09:08:54.147Z,16.53
2022-10-05T09:12:42.810Z,16.70
2022-10-05T09:16:13.726Z,16.83
2022-10-05T09:19:30.368Z,16.77
2022-10-05T09:22:40.056Z,16.92
2022-10-05T09:26:06.977Z,16.97
2022-10-05T09:29:33.069Z,16.96
2022-10-05T09:32:59.207Z,16.84
2022-10-05T09:36:27.224Z,16.99
2022-10-05T09:40:08.318Z,17.04
2022-10-05T09:43:47.601Z,17.20
2022-10-05T09:47:16.762Z,17.50
2022-10-05T09:50:48.814Z,17.71
2022-10-05T09:54:34.981Z,17.91
2022-10-05T09:57:57.913Z,17.97
2022-10-05T10:01:15.833Z,18.13
2022-10-05T10:04:41.682Z,18.36
2022-10-05T10:08:20.803Z,18.61
2022-10-05T10:11:59.177Z,18.82
2022-10-05T10:15:23.927Z,18.84
2022-10-05T10:18:36.553Z,18.83
2022-10-05T10:21:44.854Z,18.83
2022-10-05T10:25:24.395Z,18.85
2022-10-05T10:29:07.683Z,18.92
2022-10-05T10:32:24.169Z,18.85
2022-10-05T10:35:31.596Z,18.93
2022-10-05T10:38:51.237Z,19.08
2022-10-05T10:42:14.737Z,19.05
2022-10-05T10:45:28.575Z,18.99
2022-10-05T10:48:30.146Z,19.20
2022-10-05T10:51:52.798Z,19.36
2022-10-05T10:55:04.303Z,19.24
2022-10-05T11:01:39.434Z,19.52
2022-10-05T11:05:08.036Z,19.60
2022-10-05T11:08:46.287Z,19.58
2022-10-05T11:12:17.811Z,19.75
2022-10-05T11:15:31.145Z,19.93
2022-10-05T11:19:03.117Z,19.87
2022-10-05T11:22:23.384Z,19.99
2022-10-05T11:25:47.127Z,19.95
2022-10-05T11:29:11.442Z,20.06
2022-10-05T11:32:50.030Z,20.15
2022-10-05T11:36:11.813Z,20.38
2022-10-05T11:39:36.880Z,20.45
2022-10-05T11:43:21.523Z,20.39
2022-10-05T11:46:29.790Z,20.55
2022-10-05T11:49:38.998Z,20.81
2022-10-05T11:52:48.018Z,21.10
2022-10-05T11:56:21.756Z,21.13
2022-10-05T12:00:18.100Z,21.16
2022-10-05T12:03:43.065Z,21.24
2022-10-05T12:07:02.809Z,21.30
2022-10-05T12:10:14.579Z,21.30
2022-10-05T12:13:25.150Z,21.32
2022-10-05T12:16:32.492Z,21.49
2022-10-05T12:20:02.213Z,21.58
2022-10-05T12:23:17.632Z,21.57
2022-10-05T12:26:51.886Z,21.49
2022-10-05T12:30:01.503Z,21.51
2022-10-05T12:33:28.858Z,21.65
2022-10-05T12:37:02.870Z,21.65
2022-10-05T12:40:22.550Z,21.47
2022-10-05T12:43:33.044Z,21.58
2022-10-05T12:46:52.754Z,21.73
2022-10-05T12:50:07.007Z,21.79
2022-10-05T12:53:20.458Z,21.78
2022-10-05T12:56:53.288Z,21.88
2022-10-05T12:59:59.465Z,21.94
2022-10-05T13:03:12.470Z,21.95
2022-10-05T13:06:17.688Z,21.94
2022-10-05T13:09:56.398Z,21.97
2022-10-05T13:13:36.528Z,22.02
2022-10-05T13:16:59.291Z,22.07
2022-10-05T13:20:18.210Z,22.09
2022-10-05T13:23:40.759Z,22.24
2022-10-05T13:26:46.296Z,22.23
2022-10-05T13:29:58.221Z,22.27
2022-10-05T13:33:07.248Z,22.36
2022-10-05T13:36:23.695Z,22.38
2022-10-05T13:39:31.086Z,22.36
2022-10-05T13:42:55.180Z,22.47
2022-10-05T13:46:25.660Z,22.73
2022-10-05T13:49:36.242Z,22.64
2022-10-05T13:52:56.552Z,22.83
2022-10-05T13:56:25.155Z,23.01
2022-10-05T13:59:26.477Z,22.94
2022-10-05T14:02:38.538Z,23.24
2022-10-05T14:05:55.880Z,23.36
2022-10-05T14:09:00.679Z,23.35
2022-10-05T14:12:05.025Z,23.24
2022-10-05T14:15:28.397Z,23.23
2022-10-05T14:18:31.782Z,23.24
2022-10-05T14:21:47.158Z,23.31
2022-10-05T14:24:54.297Z,23.42
2022-10-05T14:28:19.331Z,23.43
2022-10-05T14:31:28.659Z,23.50
2022-10-05T14:34:35.850Z,23.63
2022-10-05T14:37:52.890Z,23.51
2022-10-05T14:41:05.104Z,23.53
2022-10-05T14:44:09.711Z,23.51
2022-10-05T14:47:23.173Z,23.45
2022-10-05T14:50:26.308Z,23.45
2022-10-05T14:53:43.560Z,23.40
2022-10-05T14:56:54.239Z,23.37
2022-10-05T15:00:03.977Z,23.37
2022-10-05T15:03:09.605Z,23.35
2022-10-05T15:06:37.671Z,23.39
2022-10-05T15:09:44.786Z,23.25
2022-10-05T15:12:48.318Z,23.05
2022-10-05T15:15:59.926Z,23.19
2022-10-05T15:19:16.154Z,23.01
2022-10-05T15:22:31.580Z,23.08
2022-10-05T15:25:46.687Z,22.85
2022-10-05T15:28:54.308Z,22.91
2022-10-05T15:32:15.661Z,22.72
2022-10-05T15:35:45.531Z,22.69
2022-10-05T15:39:10.618Z,22.56
2022-10-05T15:42:16.152Z,22.45
2022-10-05T15:45:20.638Z,22.56
2022-10-05T15:48:35.753Z,22.50
2022-10-05T15:52:18.486Z,22.32
2022-10-05T15:55:42.151Z,22.43
2022-10-05T15:59:30.412Z,22.31
2022-10-05T16:02:54.963Z,22.10
2022-10-05T16:06:18.055Z,21.96
2022-10-05T16:09:38.164Z,21.89
2022-10-05T16:13:07.689Z,21.80
2022-10-05T16:16:34.023Z,21.72
2022-10-05T16:19:59.585Z,21.62
2022-10-05T16:23:12.390Z,21.51
2022-10-05T16:26:43.036Z,21.55
2022-10-05T16:30:16.696Z,21.51
2022-10-05T16:33:46.751Z,21.52
2022-10-05T16:36:54.285Z,21.52
2022-10-05T16:40:02.623Z,21.48
2022-10-05T16:43:22.938Z,21.40
2022-10-05T16:46:38.178Z,21.32
2022-10-05T16:50:09.077Z,21.24
2022-10-05T16:53:19.025Z,21.04
2022-10-05T16:56:27.015Z,20.90
2022-10-05T16:59:47.214Z,20.77
2022-10-05T17:03:12.735Z,20.58
2022-10-05T17:06:34.277Z,20.40
2022-10-05T17:09:49.457Z,20.14
2022-10-05T17:13:02.979Z,20.02
2022-10-05T17:16:46.756Z,19.96
2022-10-05T17:20:06.950Z,19.84
2022-10-05T17:23:42.588Z,19.73
2022-10-05T17:26:57.338Z,19.68
2022-10-05T17:30:31.478Z,19.66
2022-10-05T17:33:34.377Z,19.61
2022-10-05T17:36:57.705Z,19.54
2022-10-05T17:39:59.232Z,19.48
2022-10-05T17:43:16.281Z,19.28
2022-10-05T17:46:38.119Z,18.95
2022-10-05T17:50:16.351Z,18.84
2022-10-05T17:53:52.887Z,18.66
2022-10-05T17:57:24.607Z,18.62
2022-10-05T18:00:32.072Z,18.50
2022-10-05T18:03:51.334Z,18.46
2022-10-05T18:06:55.665Z,18.49
2022-10-05T18:10:20.048Z,18.47
2022-10-05T18:13:49.954Z,18.48
2022-10-05T18:17:11.582Z,18.41
2022-10-05T18:20:28.539Z,18.15
2022-10-05T18:23:35.239Z,18.00
2022-10-05T18:26:45.073Z,17.98
2022-10-05T18:30:05.188Z,17.97
2022-10-05T18:33:29.708Z,17.93
2022-10-05T18:37:03.610Z,17.85
2022-10-05T18:40:31.600Z,17.87
2022-10-05T18:43:37.314Z,17.84
2022-10-05T18:47:03.336Z,17.80
2022-10-05T18:50:21.411Z,17.71
2022-10-05T18:53:38.420Z,17.61
2022-10-05T18:56:49.921Z,17.44
2022-10-05T19:00:07.087Z,17.32
2022-10-05T19:03:23.445Z,17.15
2022-10-05T19:06:39.561Z,16.98
2022-10-05T19:10:17.866Z,16.89
2022-10-05T19:13:50.865Z,16.92
2022-10-05T19:17:07.037Z,16.93
2022-10-05T19:20:27.850Z,16.94
2022-10-05T19:23:44.694Z,16.94
2022-10-05T19:27:01.411Z,16.86
2022-10-05T19:30:17.916Z,16.85
2022-10-05T19:33:50.034Z,16.88
2022-10-05T19:37:14.584Z,16.87
2022-10-05T19:40:40.967Z,16.83
2022-10-05T19:43:56.669Z,16.78
2022-10-05T19:47:29.381Z,16.77
2022-10-05T19:50:33.710Z,16.62
2022-10-05T19:53:46.712Z,16.54
2022-10-05T19:56:52.702Z,16.53
2022-10-05T19:59:57.849Z,16.50
2022-10-05T20:03:14.334Z,16.42
2022-10-05T20:06:15.885Z,16.32
2022-10-05T20:09:22.254Z,16.32
2022-10-05T20:12:50.666Z,16.30
2022-10-05T20:16:35.930Z,16.30
2022-10-05T20:19:57.450Z,16.31
2022-10-05T20:23:18.185Z,16.36
2022-10-05T20:27:02.574Z,16.26
2022-10-05T20:30:05.942Z,16.23
2022-10-05T20:33:11.537Z,16.26
2022-10-05T20:36:13.083Z,16.25
2022-10-05T20:39:16.732Z,16.21
2022-10-05T20:42:19.262Z,16.18
2022-10-05T20:45:21.115Z,16.02
2022-10-05T20:48:22.501Z,15.93
2022-10-05T20:51:24.515Z,15.94
2022-10-05T20:54:26.711Z,15.87
2022-10-05T20:57:28.110Z,15.89
2022-10-05T21:00:49.563Z,15.89
2022-10-05T21:03:50.981Z,15.93
2022-10-05T21:06:53.525Z,15.98
2022-10-05T21:09:55.624Z,15.97
2022-10-05T21:12:57.022Z,15.97
2022-10-05T21:15:58.455Z,15.90
2022-10-05T21:18:59.857Z,15.88
2022-10-05T21:22:02.368Z,15.89
2022-10-05T21:25:04.087Z,15.74
2022-10-05T21:28:06.299Z,15.64
2022-10-05T21:31:08.916Z,15.64
2022-10-05T21:34:10.400Z,15.50
2022-10-05T21:37:11.921Z,15.36
2022-10-05T21:40:13.367Z,15.33
2022-10-05T21:43:14.838Z,15.36
2022-10-05T21:46:22.808Z,15.36
2022-10-05T21:49:25.754Z,15.28
2022-10-05T21:52:27.141Z,15.28
2022-10-05T21:55:28.841Z,15.28
2022-10-05T21:58:31.129Z,15.20
2022-10-05T22:01:35.913Z,15.16
2022-10-05T22:04:37.397Z,14.96
2022-10-05T22:07:38.785Z,14.81
2022-10-05T22:10:40.189Z,14.78
2022-10-05T22:13:47.604Z,14.77
2022-10-05T22:16:49.398Z,14.80
2022-10-05T22:19:51.343Z,14.85
2022-10-05T22:22:53.850Z,14.88
2022-10-05T22:25:55.289Z,14.94
2022-10-05T22:28:56.990Z,14.93
2022-10-05T22:31:58.420Z,14.89
2022-10-05T22:34:59.892Z,14.85
2022-10-05T22:38:02.881Z,14.84
2022-10-05T22:41:04.305Z,14.77
2022-10-05T22:44:06.667Z,14.75
2022-10-05T22:47:08.124Z,14.71
2022-10-05T22:50:09.726Z,14.60
2022-10-05T22:53:12.277Z,14.46
2022-10-05T22:56:13.959Z,14.50
2022-10-05T22:59:15.378Z,14.43
2022-10-05T23:02:18.562Z,14.22
2022-10-05T23:05:19.984Z,14.21
2022-10-05T23:08:21.368Z,14.21
2022-10-05T23:11:25.856Z,14.23
2022-10-05T23:14:29.203Z,14.26
2022-10-05T23:17:33.392Z,14.31
2022-10-05T23:20:34.873Z,14.33
2022-10-05T23:23:38.115Z,14.37
2022-10-05T23:26:39.504Z,14.37
2022-10-05T23:29:40.905Z,14.42
2022-10-05T23:32:44.056Z,14.43
2022-10-05T23:35:45.500Z,14.45
2022-10-05T23:38:47.797Z,14.37
2022-10-05T23:41:49.181Z,14.30
2022-10-05T23:44:50.877Z,14.34
2022-10-05T23:47:52.325Z,14.39
2022-10-05T23:50:55.607Z,14.40
2022-10-05T23:53:57.003Z,14.42
2022-10-05T23:56:58.394Z,14.36
